Time;durP1;ratioP1;P1;durP2;ratioP2;P2;SDS_P1;SDS_P2;PMS_P1;PMS_P2;Temp;Humidity;BMP_temperature;BMP_pressure;BME280_temperature;BME280_humidity;BME280_pressure;Samples;Min_cycle;Max_cycle;Signal;HPM_P1;HPM_P2
2021/12/08 00:00:07;;;;;;;3.45;1.00;;;;;;;;;;5074145;28;20021;-62
2021/12/08 00:02:33;;;;;;;4.25;0.90;;;;;;;;;;5074330;28;20082;-62
2021/12/08 00:04:59;;;;;;;1.75;0.95;;;;;;;;;;5074283;28;20021;-61
2021/12/08 00:07:25;;;;;;;4.32;1.10;;;;;;;;;;5074189;28;20353;-62
2021/12/08 00:10:04;;;;;;;1.00;0.80;;;;;;;;;;5074059;28;20024;-62
2021/12/08 00:15:15;;;;;;;1.55;0.88;;;;;;;;;;5073259;28;20046;-62
2021/12/08 00:17:41;;;;;;;2.78;1.10;;;;;;;;;;5073893;28;20035;-62
2021/12/08 00:20:07;;;;;;;1.90;0.93;;;;;;;;;;5073668;28;20021;-62
2021/12/08 00:22:33;;;;;;;1.17;0.90;;;;;;;;;;5073818;28;20024;-62
2021/12/08 00:24:59;;;;;;;3.83;1.10;;;;;;;;;;5073954;28;20456;-63
2021/12/08 00:27:25;;;;;;;4.03;1.58;;;;;;;;;;5055858;28;20100;-62
2021/12/08 00:29:51;;;;;;;2.30;1.10;;;;;;;;;;5073591;28;20025;-61
2021/12/08 00:32:20;;;;;;;1.83;0.90;;;;;;;;;;5072555;28;20127;-62
2021/12/08 00:34:47;;;;;;;1.20;0.90;;;;;;;;;;5073625;28;20021;-62
2021/12/08 00:37:13;;;;;;;3.60;0.80;;;;;;;;;;5073357;28;20028;-62
2021/12/08 00:39:39;;;;;;;1.77;0.88;;;;;;;;;;5073353;28;20021;-62
2021/12/08 00:42:05;;;;;;;1.85;1.00;;;;;;;;;;5073678;28;20344;-62
2021/12/08 00:44:31;;;;;;;1.75;1.00;;;;;;;;;;5072974;28;20025;-63
2021/12/08 00:46:57;;;;;;;2.25;0.80;;;;;;;;;;5073196;28;20025;-62
2021/12/08 00:49:23;;;;;;;0.73;0.70;;;;;;;;;;5073544;28;20024;-61
2021/12/08 00:51:49;;;;;;;1.95;1.00;;;;;;;;;;5073240;28;20479;-62
2021/12/08 00:54:15;;;;;;;1.35;0.95;;;;;;;;;;5055323;28;20460;-61
2021/12/08 00:56:41;;;;;;;2.15;0.90;;;;;;;;;;5073172;28;20036;-62
2021/12/08 00:59:07;;;;;;;2.33;1.20;;;;;;;;;;5073284;28;20017;-62
2021/12/08 01:01:33;;;;;;;12.70;0.95;;;;;;;;;;5073164;28;20102;-62
2021/12/08 01:03:59;;;;;;;3.97;1.00;;;;;;;;;;5072945;28;20035;-62
2021/12/08 01:06:25;;;;;;;2.72;0.98;;;;;;;;;;5072790;28;20024;-62
2021/12/08 01:08:51;;;;;;;3.38;0.98;;;;;;;;;;5072794;28;20051;-62
2021/12/08 01:11:18;;;;;;;2.72;1.02;;;;;;;;;;5054576;28;20029;-61
2021/12/08 01:13:44;;;;;;;6.22;1.10;;;;;;;;;;5072577;28;20024;-61
2021/12/08 01:16:11;;;;;;;2.05;1.00;;;;;;;;;;5072153;28;20052;-62
2021/12/08 01:18:37;;;;;;;1.23;0.90;;;;;;;;;;5071893;28;20103;-63
2021/12/08 01:21:05;;;;;;;2.22;1.00;;;;;;;;;;5072630;28;20544;-62
2021/12/08 01:23:31;;;;;;;3.97;1.10;;;;;;;;;;5072723;28;20027;-62
2021/12/08 01:25:57;;;;;;;18.70;1.40;;;;;;;;;;5072672;28;20103;-67
2021/12/08 01:28:28;;;;;;;8.50;1.38;;;;;;;;;;5054522;28;20082;-61
2021/12/08 01:30:55;;;;;;;5.88;1.58;;;;;;;;;;5053652;28;20037;-62
2021/12/08 01:33:23;;;;;;;13.10;1.58;;;;;;;;;;5072545;28;20115;-61
2021/12/08 01:35:50;;;;;;;15.18;1.40;;;;;;;;;;5072698;28;20021;-62
2021/12/08 01:38:16;;;;;;;19.83;1.75;;;;;;;;;;5055290;28;20036;-63
2021/12/08 01:40:42;;;;;;;8.75;1.45;;;;;;;;;;5072865;28;20029;-62
2021/12/08 01:43:25;;;;;;;11.13;1.70;;;;;;;;;;5073430;28;20062;-61
2021/12/08 01:46:00;;;;;;;6.60;1.55;;;;;;;;;;5076921;28;20388;-62
2021/12/08 01:48:26;;;;;;;8.38;1.90;;;;;;;;;;5077131;28;20027;-64
2021/12/08 01:50:55;;;;;;;14.70;1.77;;;;;;;;;;5076037;28;20046;-62
2021/12/08 01:53:21;;;;;;;19.20;1.90;;;;;;;;;;5076618;28;20067;-63
2021/12/08 01:55:48;;;;;;;8.52;1.45;;;;;;;;;;5076599;28;20119;-62
2021/12/08 01:58:14;;;;;;;6.55;1.20;;;;;;;;;;5076481;28;20094;-63
2021/12/08 02:00:42;;;;;;;8.25;1.50;;;;;;;;;;5076494;28;20028;-62
2021/12/08 02:03:09;;;;;;;3.17;1.40;;;;;;;;;;5076490;28;20032;-63
2021/12/08 02:05:35;;;;;;;28.58;2.97;;;;;;;;;;5076505;28;20033;-60
2021/12/08 02:08:01;;;;;;;19.95;2.40;;;;;;;;;;5076314;28;20016;-60
2021/12/08 02:10:27;;;;;;;19.13;2.60;;;;;;;;;;5076246;28;20035;-61
2021/12/08 02:12:53;;;;;;;20.13;2.17;;;;;;;;;;5076641;28;20021;-61
2021/12/08 02:15:20;;;;;;;10.40;1.98;;;;;;;;;;5076035;28;20094;-63
2021/12/08 02:17:47;;;;;;;8.25;1.48;;;;;;;;;;5057205;28;20036;-61
2021/12/08 02:20:15;;;;;;;11.43;1.60;;;;;;;;;;5074201;28;20442;-61
2021/12/08 02:22:41;;;;;;;17.90;1.88;;;;;;;;;;5075566;28;20021;-61
2021/12/08 02:25:09;;;;;;;13.57;2.10;;;;;;;;;;5056997;28;20445;-61
2021/12/08 02:27:35;;;;;;;9.63;1.52;;;;;;;;;;5072445;28;20051;-61
2021/12/08 02:30:13;;;;;;;21.38;1.77;;;;;;;;;;5074866;28;20048;-61
2021/12/08 02:48:52;;;;;;;5.47;1.20;;;;;;;;;;5071839;28;20082;-61
2021/12/08 02:51:20;;;;;;;4.50;1.20;;;;;;;;;;5056514;28;20055;-61
2021/12/08 02:53:47;;;;;;;7.25;1.20;;;;;;;;;;5056764;28;20098;-60
2021/12/08 02:56:13;;;;;;;8.73;1.23;;;;;;;;;;5073280;28;20752;-60
2021/12/08 02:58:40;;;;;;;14.95;1.20;;;;;;;;;;5074680;28;20032;-60
2021/12/08 03:01:08;;;;;;;8.80;1.20;;;;;;;;;;5074321;28;20013;-60
2021/12/08 03:03:34;;;;;;;7.90;1.00;;;;;;;;;;5056611;28;20021;-60
2021/12/08 03:06:00;;;;;;;7.00;1.08;;;;;;;;;;5073452;28;20025;-60
2021/12/08 03:08:26;;;;;;;10.95;1.00;;;;;;;;;;5074319;28;20101;-61
2021/12/08 03:10:53;;;;;;;6.63;1.38;;;;;;;;;;5073521;28;20024;-60
2021/12/08 03:13:28;;;;;;;6.60;1.00;;;;;;;;;;5073641;28;20020;-60
2021/12/08 03:15:54;;;;;;;4.20;0.95;;;;;;;;;;5071401;28;20064;-59
2021/12/08 03:18:20;;;;;;;7.75;1.20;;;;;;;;;;5039287;28;20020;-62
2021/12/08 03:20:46;;;;;;;6.30;1.05;;;;;;;;;;5072776;28;20035;-60
2021/12/08 03:23:18;;;;;;;4.05;0.88;;;;;;;;;;5074036;28;20470;-61
2021/12/08 03:25:54;;;;;;;7.82;0.90;;;;;;;;;;5072089;28;20047;-60
2021/12/08 03:28:24;;;;;;;7.43;0.82;;;;;;;;;;5071705;28;20032;-61
2021/12/08 03:31:04;;;;;;;5.57;1.15;;;;;;;;;;5073646;28;20104;-61
2021/12/08 03:33:30;;;;;;;7.80;0.82;;;;;;;;;;5072648;28;20016;-61
2021/12/08 03:35:56;;;;;;;6.53;0.90;;;;;;;;;;5073234;28;20025;-60
2021/12/08 03:38:23;;;;;;;10.20;0.77;;;;;;;;;;5056324;28;20434;-61
2021/12/08 03:40:50;;;;;;;3.03;1.00;;;;;;;;;;5074501;28;20028;-61
2021/12/08 03:43:16;;;;;;;14.20;1.10;;;;;;;;;;5056733;28;20444;-61
2021/12/08 03:45:46;;;;;;;9.20;1.08;;;;;;;;;;5074421;28;20456;-61
2021/12/08 03:48:15;;;;;;;3.85;0.60;;;;;;;;;;5074948;28;20020;-61
2021/12/08 03:50:43;;;;;;;1.20;0.70;;;;;;;;;;5074483;28;20031;-61
2021/12/08 03:53:12;;;;;;;4.28;0.90;;;;;;;;;;5056506;28;20037;-61
2021/12/08 03:55:38;;;;;;;3.28;0.70;;;;;;;;;;5074174;28;20125;-61
2021/12/08 03:58:04;;;;;;;7.20;0.80;;;;;;;;;;5074149;28;20021;-61
2021/12/08 04:00:30;;;;;;;4.80;1.00;;;;;;;;;;5074283;28;20020;-61
2021/12/08 04:02:57;;;;;;;3.55;1.00;;;;;;;;;;5074175;28;20017;-61
2021/12/08 04:05:39;;;;;;;1.90;0.82;;;;;;;;;;5073515;28;20036;-62
2021/12/08 04:08:14;;;;;;;1.95;0.70;;;;;;;;;;5073845;28;20041;-61
2021/12/08 04:10:40;;;;;;;4.25;0.88;;;;;;;;;;5073884;28;20499;-61
2021/12/08 04:13:06;;;;;;;2.60;0.70;;;;;;;;;;5073869;28;20029;-61
2021/12/08 04:15:32;;;;;;;4.20;0.70;;;;;;;;;;5073849;28;20045;-61
2021/12/08 04:17:58;;;;;;;1.20;0.50;;;;;;;;;;5074033;28;20089;-61
2021/12/08 04:20:28;;;;;;;3.97;0.82;;;;;;;;;;5055542;28;20032;-62
2021/12/08 04:22:55;;;;;;;2.67;0.65;;;;;;;;;;5093990;28;20024;-62
2021/12/08 04:25:29;;;;;;;4.05;1.02;;;;;;;;;;5094109;28;20115;-61
2021/12/08 04:27:57;;;;;;;2.13;0.60;;;;;;;;;;5093467;28;20089;-61
2021/12/08 04:30:28;;;;;;;2.58;0.55;;;;;;;;;;5094126;28;20020;-61
2021/12/08 04:32:54;;;;;;;3.45;0.60;;;;;;;;;;5075823;28;20110;-61
2021/12/08 04:35:21;;;;;;;2.50;0.90;;;;;;;;;;5093732;28;20016;-62
2021/12/08 04:37:51;;;;;;;3.05;0.73;;;;;;;;;;5093813;28;20020;-60
2021/12/08 04:40:37;;;;;;;3.50;0.60;;;;;;;;;;5094061;28;20398;-62
2021/12/08 04:43:22;;;;;;;3.80;0.95;;;;;;;;;;5093685;28;20035;-61
2021/12/08 04:46:04;;;;;;;5.38;0.80;;;;;;;;;;5093696;28;20528;-60
2021/12/08 04:49:00;;;;;;;4.10;0.88;;;;;;;;;;5093592;28;20379;-61
2021/12/08 04:51:41;;;;;;;7.57;0.80;;;;;;;;;;5081205;28;20097;-61
2021/12/08 05:02:59;;;;;;;5.88;0.50;;;;;;;;;;5073207;28;20121;-61
2021/12/08 05:08:01;;;;;;;3.33;0.57;;;;;;;;;;5072911;28;20111;-61
2021/12/08 05:10:32;;;;;;;1.98;0.50;;;;;;;;;;5055233;28;20077;-61
2021/12/08 05:12:59;;;;;;;4.45;0.60;;;;;;;;;;5072369;28;20025;-62
2021/12/08 05:15:31;;;;;;;3.20;0.80;;;;;;;;;;5051553;28;20057;-60
2021/12/08 05:18:00;;;;;;;1.40;0.80;;;;;;;;;;5052365;28;20033;-61
2021/12/08 05:20:31;;;;;;;2.22;0.60;;;;;;;;;;5052882;28;20053;-61
2021/12/08 05:22:59;;;;;;;3.42;0.80;;;;;;;;;;5052682;28;20021;-61
2021/12/08 05:25:27;;;;;;;3.33;0.60;;;;;;;;;;5053198;28;20021;-62
2021/12/08 05:27:55;;;;;;;2.10;0.70;;;;;;;;;;5052713;28;20107;-62
2021/12/08 05:30:26;;;;;;;2.08;0.60;;;;;;;;;;5052104;28;20461;-62
2021/12/08 05:32:52;;;;;;;5.30;0.77;;;;;;;;;;5052379;28;20028;-61
2021/12/08 05:35:19;;;;;;;4.57;0.80;;;;;;;;;;5034541;28;20028;-62
2021/12/08 05:37:45;;;;;;;2.92;0.70;;;;;;;;;;5052560;28;20037;-60
2021/12/08 05:40:14;;;;;;;2.20;0.70;;;;;;;;;;5052411;28;20620;-61
2021/12/08 05:42:40;;;;;;;1.48;0.70;;;;;;;;;;5034575;28;20484;-62
2021/12/08 05:45:09;;;;;;;4.03;0.73;;;;;;;;;;5034856;28;20467;-61
2021/12/08 05:47:35;;;;;;;5.72;0.80;;;;;;;;;;5049090;28;20025;-61
2021/12/08 05:50:01;;;;;;;9.27;0.85;;;;;;;;;;5031880;28;20029;-62
2021/12/08 05:52:28;;;;;;;5.15;0.93;;;;;;;;;;5052786;28;20099;-62
2021/12/08 05:54:54;;;;;;;7.82;0.98;;;;;;;;;;5052383;28;20028;-61
2021/12/08 05:57:23;;;;;;;2.55;0.75;;;;;;;;;;5052357;28;20045;-61
2021/12/08 05:59:50;;;;;;;5.75;0.82;;;;;;;;;;5052506;28;20021;-61
2021/12/08 06:02:30;;;;;;;2.95;0.98;;;;;;;;;;5052337;28;20033;-61
2021/12/08 06:04:57;;;;;;;6.38;1.13;;;;;;;;;;5052571;28;20021;-60
2021/12/08 06:07:23;;;;;;;2.42;0.70;;;;;;;;;;5052288;28;20079;-61
2021/12/08 06:09:50;;;;;;;5.55;0.88;;;;;;;;;;5052317;28;20036;-61
2021/12/08 06:12:16;;;;;;;2.10;0.90;;;;;;;;;;5052607;28;20108;-61
2021/12/08 06:14:42;;;;;;;4.53;0.73;;;;;;;;;;5055826;28;20123;-62
2021/12/08 06:17:10;;;;;;;2.47;0.82;;;;;;;;;;5072111;28;20055;-61
2021/12/08 06:19:37;;;;;;;6.38;1.05;;;;;;;;;;5072202;28;20029;-62
2021/12/08 06:22:05;;;;;;;11.77;0.90;;;;;;;;;;5072417;28;20028;-61
2021/12/08 06:24:31;;;;;;;3.45;0.88;;;;;;;;;;5072594;28;20078;-61
2021/12/08 06:26:57;;;;;;;6.63;0.85;;;;;;;;;;5054124;28;20033;-61
2021/12/08 06:29:24;;;;;;;2.63;0.90;;;;;;;;;;5073521;28;20032;-61
2021/12/08 06:31:53;;;;;;;4.80;0.90;;;;;;;;;;5075913;28;20028;-61
2021/12/08 06:34:19;;;;;;;2.40;0.80;;;;;;;;;;5075959;28;20024;-61
2021/12/08 06:36:51;;;;;;;6.88;0.90;;;;;;;;;;5057718;28;20043;-62
2021/12/08 06:39:19;;;;;;;2.13;0.85;;;;;;;;;;5075777;28;20024;-61
2021/12/08 06:41:49;;;;;;;2.03;0.60;;;;;;;;;;5075669;28;20032;-60
2021/12/08 06:44:18;;;;;;;6.63;0.93;;;;;;;;;;5075775;28;20056;-61
2021/12/08 06:46:45;;;;;;;4.40;0.90;;;;;;;;;;5075616;28;20027;-62
2021/12/08 06:49:12;;;;;;;2.03;0.80;;;;;;;;;;5057742;28;20518;-61
2021/12/08 06:51:40;;;;;;;3.30;0.88;;;;;;;;;;5075158;28;20107;-61
2021/12/08 06:54:11;;;;;;;1.50;0.77;;;;;;;;;;5075372;28;20070;-62
2021/12/08 06:56:40;;;;;;;2.00;0.93;;;;;;;;;;5075206;28;20360;-60
2021/12/08 06:59:09;;;;;;;2.08;0.90;;;;;;;;;;5075364;28;20155;-61
2021/12/08 07:06:59;;;;;;;2.35;1.00;;;;;;;;;;5075102;28;20052;-61
2021/12/08 07:09:46;;;;;;;12.00;1.08;;;;;;;;;;5074802;28;20033;-62
2021/12/08 07:12:24;;;;;;;2.72;1.00;;;;;;;;;;5075429;28;20036;-61
2021/12/08 07:14:55;;;;;;;7.95;1.10;;;;;;;;;;5069782;28;20115;-60
2021/12/08 07:17:23;;;;;;;13.98;1.23;;;;;;;;;;5055125;28;20075;-61
2021/12/08 07:20:02;;;;;;;7.05;0.95;;;;;;;;;;5054849;28;20025;-60
2021/12/08 07:22:29;;;;;;;5.43;0.88;;;;;;;;;;5055121;28;20021;-60
2021/12/08 07:24:56;;;;;;;6.90;0.98;;;;;;;;;;5054174;28;20029;-61
2021/12/08 07:27:24;;;;;;;2.85;1.10;;;;;;;;;;5054860;28;20021;-61
2021/12/08 07:29:51;;;;;;;7.32;1.00;;;;;;;;;;5054616;28;20029;-62
2021/12/08 07:32:22;;;;;;;3.35;1.02;;;;;;;;;;5036932;28;20032;-62
2021/12/08 07:34:51;;;;;;;3.73;1.10;;;;;;;;;;5054750;28;20029;-61
2021/12/08 07:37:18;;;;;;;5.00;1.17;;;;;;;;;;5054917;28;20036;-62
2021/12/08 07:39:46;;;;;;;3.30;0.88;;;;;;;;;;5054362;28;20486;-61
2021/12/08 07:42:20;;;;;;;6.30;1.17;;;;;;;;;;5035896;28;20032;-61
2021/12/08 07:44:47;;;;;;;5.22;0.90;;;;;;;;;;5054406;28;20037;-60
2021/12/08 07:47:15;;;;;;;6.72;1.08;;;;;;;;;;5054082;28;20028;-61
2021/12/08 07:49:45;;;;;;;5.45;1.05;;;;;;;;;;5053428;28;20024;-61
2021/12/08 07:52:13;;;;;;;7.35;1.00;;;;;;;;;;5053836;28;20028;-60
2021/12/08 07:54:41;;;;;;;5.80;1.17;;;;;;;;;;5035820;28;20024;-61
2021/12/08 07:57:08;;;;;;;5.80;1.10;;;;;;;;;;5053633;28;20350;-61
2021/12/08 07:59:36;;;;;;;3.70;1.15;;;;;;;;;;5035840;28;20071;-61
2021/12/08 08:02:07;;;;;;;7.57;1.23;;;;;;;;;;5053897;28;20025;-61
2021/12/08 08:04:33;;;;;;;15.68;1.52;;;;;;;;;;5053966;28;20025;-62
2021/12/08 08:07:00;;;;;;;9.80;1.50;;;;;;;;;;5053758;28;20044;-61
2021/12/08 08:09:28;;;;;;;8.48;1.48;;;;;;;;;;5052981;28;20057;-63
2021/12/08 08:11:57;;;;;;;18.33;1.80;;;;;;;;;;5053199;28;20047;-62
2021/12/08 08:14:25;;;;;;;5.85;1.60;;;;;;;;;;5051875;28;20473;-61
2021/12/08 08:16:55;;;;;;;13.32;1.60;;;;;;;;;;5073418;28;20040;-62
2021/12/08 08:19:26;;;;;;;11.30;1.55;;;;;;;;;;5073320;28;20337;-62
2021/12/08 08:21:53;;;;;;;60.03;2.50;;;;;;;;;;5067670;28;20075;-63
2021/12/08 08:24:20;;;;;;;32.50;2.30;;;;;;;;;;5072872;28;20078;-63
2021/12/08 08:26:48;;;;;;;27.00;2.10;;;;;;;;;;5073229;28;20036;-64
2021/12/08 08:29:14;;;;;;;28.67;2.42;;;;;;;;;;5073420;28;20074;-65
2021/12/08 08:31:43;;;;;;;22.48;2.58;;;;;;;;;;5072946;28;20029;-66
2021/12/08 08:34:10;;;;;;;20.35;1.95;;;;;;;;;;5072654;28;20078;-63
2021/12/08 08:36:37;;;;;;;57.30;2.80;;;;;;;;;;5072755;28;20060;-65
2021/12/08 08:39:10;;;;;;;16.30;1.80;;;;;;;;;;5054605;28;20036;-66
2021/12/08 08:41:47;;;;;;;22.08;2.13;;;;;;;;;;5057762;28;20565;-65
2021/12/08 08:44:18;;;;;;;16.30;2.40;;;;;;;;;;5070679;28;20034;-65
2021/12/08 08:46:45;;;;;;;19.95;2.08;;;;;;;;;;5072057;28;20215;-66
2021/12/08 08:49:15;;;;;;;37.72;2.45;;;;;;;;;;5072426;28;20040;-66
2021/12/08 08:51:46;;;;;;;18.88;2.42;;;;;;;;;;5072581;28;20036;-68
2021/12/08 08:54:14;;;;;;;53.20;3.17;;;;;;;;;;5072545;28;20099;-64
2021/12/08 08:56:45;;;;;;;19.33;2.47;;;;;;;;;;5072725;28;20040;-69
2021/12/08 08:59:15;;;;;;;21.20;2.45;;;;;;;;;;5054766;28;20032;-66
2021/12/08 09:01:46;;;;;;;27.08;2.45;;;;;;;;;;5073020;28;20066;-69
2021/12/08 09:04:21;;;;;;;17.65;3.00;;;;;;;;;;5054854;28;20440;-67
2021/12/08 09:06:49;;;;;;;16.33;1.98;;;;;;;;;;5072641;28;20077;-67
2021/12/08 09:09:17;;;;;;;25.92;3.10;;;;;;;;;;5054437;28;20474;-67
2021/12/08 09:12:15;;;;;;;22.70;3.20;;;;;;;;;;5072402;28;20032;-67
2021/12/08 09:14:41;;;;;;;26.38;3.08;;;;;;;;;;5027684;28;20403;-64
2021/12/08 09:17:10;;;;;;;12.57;2.78;;;;;;;;;;5072343;28;20484;-64
2021/12/08 09:19:41;;;;;;;22.50;2.70;;;;;;;;;;5072370;28;20024;-65
2021/12/08 09:22:10;;;;;;;13.82;2.65;;;;;;;;;;5072295;28;20058;-65
2021/12/08 09:24:44;;;;;;;10.55;2.22;;;;;;;;;;5072418;28;20024;-65
2021/12/08 09:27:10;;;;;;;29.75;2.58;;;;;;;;;;5054218;28;20064;-66
2021/12/08 09:29:44;;;;;;;13.90;2.53;;;;;;;;;;5072301;28;20111;-66
2021/12/08 09:32:12;;;;;;;12.70;2.70;;;;;;;;;;5054326;28;20476;-65
2021/12/08 09:34:40;;;;;;;17.52;2.63;;;;;;;;;;5072123;28;20539;-65
2021/12/08 09:37:15;;;;;;;14.82;2.60;;;;;;;;;;5072222;28;20044;-65
2021/12/08 09:39:43;;;;;;;10.07;2.15;;;;;;;;;;5072006;28;20383;-65
2021/12/08 09:42:15;;;;;;;11.07;2.13;;;;;;;;;;5072057;28;20032;-65
2021/12/08 09:44:46;;;;;;;9.55;3.33;;;;;;;;;;5072091;28;20128;-65
2021/12/08 09:47:12;;;;;;;18.88;3.03;;;;;;;;;;5072464;28;20085;-65
2021/12/08 09:49:39;;;;;;;10.45;2.67;;;;;;;;;;5072025;28;20617;-65
2021/12/08 09:52:08;;;;;;;21.50;2.90;;;;;;;;;;5071811;28;20016;-66
2021/12/08 09:54:34;;;;;;;13.65;2.63;;;;;;;;;;5072153;28;20033;-67
2021/12/08 09:57:06;;;;;;;11.20;2.83;;;;;;;;;;5071993;28;20043;-66
2021/12/08 09:59:33;;;;;;;14.25;2.75;;;;;;;;;;5071999;28;20012;-66
2021/12/08 10:02:03;;;;;;;9.40;2.03;;;;;;;;;;5071866;28;20035;-65
2021/12/08 10:04:28;;;;;;;6.78;1.92;;;;;;;;;;5055142;28;20023;-65
2021/12/08 10:06:59;;;;;;;11.27;2.10;;;;;;;;;;5075956;28;20029;-66
2021/12/08 10:16:39;;;;;;;8.70;2.03;;;;;;;;;;5109482;27;20404;-66
2021/12/08 10:19:05;;;;;;;7.07;2.20;;;;;;;;;;5100722;28;20019;-67
2021/12/08 10:21:32;;;;;;;8.02;2.13;;;;;;;;;;5112144;28;20059;-68
2021/12/08 10:23:58;;;;;;;12.55;2.30;;;;;;;;;;5130611;28;20023;-67
2021/12/08 10:26:25;;;;;;;12.70;2.47;;;;;;;;;;5130371;28;20030;-67
2021/12/08 10:28:55;;;;;;;8.32;2.35;;;;;;;;;;5130356;28;20528;-67
2021/12/08 10:31:28;;;;;;;7.05;2.17;;;;;;;;;;5130230;28;20110;-67
2021/12/08 10:34:05;;;;;;;10.85;2.33;;;;;;;;;;5130585;28;20027;-67
2021/12/08 10:39:21;;;;;;;10.90;2.27;;;;;;;;;;5130353;28;20024;-67
2021/12/08 10:41:59;;;;;;;6.97;2.03;;;;;;;;;;5111678;28;20259;-67
2021/12/08 10:44:27;;;;;;;9.30;2.13;;;;;;;;;;5130191;28;20058;-67
2021/12/08 10:46:57;;;;;;;6.80;2.40;;;;;;;;;;5129860;28;20058;-66
2021/12/08 10:54:36;;;;;;;5.55;2.30;;;;;;;;;;5109733;28;20434;-67
2021/12/08 10:57:03;;;;;;;5.03;2.08;;;;;;;;;;5090850;28;20060;-67
2021/12/08 10:59:49;;;;;;;7.65;2.28;;;;;;;;;;5091237;28;20028;-67
2021/12/08 11:02:34;;;;;;;6.75;2.63;;;;;;;;;;5109213;28;20028;-67
2021/12/08 11:05:00;;;;;;;7.18;2.28;;;;;;;;;;5109430;28;20035;-66
2021/12/08 11:07:26;;;;;;;6.25;2.47;;;;;;;;;;5109177;28;20028;-69
2021/12/08 11:09:52;;;;;;;6.30;2.33;;;;;;;;;;5109507;28;20475;-69
2021/12/08 11:12:18;;;;;;;3.25;2.20;;;;;;;;;;5091246;28;20467;-70
2021/12/08 11:14:45;;;;;;;10.55;2.15;;;;;;;;;;5109016;28;20055;-67
2021/12/08 11:17:25;;;;;;;3.92;2.20;;;;;;;;;;5090832;28;20031;-69
2021/12/08 11:20:11;;;;;;;4.28;2.30;;;;;;;;;;5112833;28;20024;-68
2021/12/08 11:22:37;;;;;;;5.45;2.33;;;;;;;;;;5070329;28;20074;-69
2021/12/08 11:25:03;;;;;;;3.35;2.20;;;;;;;;;;5088745;28;20031;-68
2021/12/08 11:27:30;;;;;;;5.40;1.90;;;;;;;;;;5078166;28;20044;-68
2021/12/08 11:29:56;;;;;;;6.25;2.25;;;;;;;;;;5056884;28;20028;-68
2021/12/08 11:32:24;;;;;;;4.38;2.35;;;;;;;;;;5075030;28;20024;-69
2021/12/08 11:34:51;;;;;;;8.93;2.33;;;;;;;;;;5075012;28;20032;-68
2021/12/08 11:37:19;;;;;;;5.65;2.17;;;;;;;;;;5057553;28;20527;-69
2021/12/08 11:39:48;;;;;;;8.27;1.90;;;;;;;;;;5077339;28;20028;-68
2021/12/08 11:42:13;;;;;;;4.47;1.90;;;;;;;;;;5094898;28;20380;-68
2021/12/08 11:44:44;;;;;;;5.95;2.00;;;;;;;;;;5094952;28;20042;-68
2021/12/08 11:47:12;;;;;;;5.80;2.10;;;;;;;;;;5076951;28;20077;-68
2021/12/08 11:49:57;;;;;;;6.05;2.15;;;;;;;;;;5095063;28;20028;-68
2021/12/08 11:52:24;;;;;;;4.22;2.00;;;;;;;;;;5074876;28;20021;-68
2021/12/08 11:55:00;;;;;;;4.68;2.10;;;;;;;;;;5094081;28;20111;-68
2021/12/08 11:57:32;;;;;;;4.32;1.67;;;;;;;;;;5094938;28;20539;-68
2021/12/08 12:00:06;;;;;;;5.85;2.17;;;;;;;;;;5095087;28;20016;-69
2021/12/08 12:02:34;;;;;;;3.63;1.80;;;;;;;;;;5094843;28;20409;-68
2021/12/08 12:05:02;;;;;;;6.00;2.15;;;;;;;;;;5094565;28;20077;-68
2021/12/08 12:07:28;;;;;;;4.82;2.10;;;;;;;;;;5094496;28;20020;-69
2021/12/08 12:09:54;;;;;;;5.63;1.95;;;;;;;;;;5080946;28;20089;-69
2021/12/08 12:12:20;;;;;;;4.18;1.75;;;;;;;;;;5074575;28;20017;-69
2021/12/08 12:14:47;;;;;;;3.47;1.70;;;;;;;;;;5056243;28;20051;-68
2021/12/08 12:17:13;;;;;;;3.50;1.75;;;;;;;;;;5074712;28;20338;-69
2021/12/08 12:20:02;;;;;;;3.05;1.75;;;;;;;;;;5100970;28;20073;-69
2021/12/08 12:22:55;;;;;;;3.70;1.70;;;;;;;;;;5103994;28;20046;-68
2021/12/08 12:25:27;;;;;;;3.75;1.65;;;;;;;;;;5083730;28;20100;-70
2021/12/08 12:27:53;;;;;;;4.13;1.92;;;;;;;;;;5114749;28;20534;-70
2021/12/08 12:30:23;;;;;;;3.25;1.65;;;;;;;;;;5114685;28;20098;-69
2021/12/08 12:32:50;;;;;;;3.55;1.60;;;;;;;;;;5095907;28;20039;-69
2021/12/08 12:35:21;;;;;;;4.10;1.70;;;;;;;;;;5114384;28;20065;-68
2021/12/08 12:37:49;;;;;;;2.90;1.80;;;;;;;;;;5113676;28;20024;-68
2021/12/08 12:40:17;;;;;;;4.43;1.75;;;;;;;;;;5113731;28;20028;-68
2021/12/08 12:42:48;;;;;;;3.15;1.48;;;;;;;;;;5104592;28;20487;-68
2021/12/08 12:45:16;;;;;;;4.43;1.77;;;;;;;;;;5085306;28;20505;-68
2021/12/08 12:47:43;;;;;;;5.13;1.60;;;;;;;;;;5093167;28;20101;-68
2021/12/08 12:50:24;;;;;;;4.55;1.95;;;;;;;;;;5074829;28;20097;-67
2021/12/08 12:52:56;;;;;;;5.20;1.90;;;;;;;;;;5085819;28;20356;-68
2021/12/08 12:55:22;;;;;;;3.50;1.63;;;;;;;;;;5093500;28;20028;-68
2021/12/08 12:58:04;;;;;;;3.47;1.73;;;;;;;;;;5093620;28;20065;-68
2021/12/08 13:00:33;;;;;;;3.40;1.70;;;;;;;;;;5073568;28;20082;-69
2021/12/08 13:03:00;;;;;;;4.30;2.00;;;;;;;;;;5055303;28;20016;-68
2021/12/08 13:05:46;;;;;;;3.78;1.80;;;;;;;;;;5073538;28;20234;-70
2021/12/08 13:08:12;;;;;;;4.05;1.90;;;;;;;;;;5073542;28;20021;-69
2021/12/08 13:10:40;;;;;;;4.57;1.67;;;;;;;;;;5072453;28;20081;-69
2021/12/08 13:13:17;;;;;;;3.40;1.75;;;;;;;;;;5093270;28;20040;-70
2021/12/08 13:15:45;;;;;;;8.15;1.83;;;;;;;;;;5093274;28;20044;-69
2021/12/08 13:18:15;;;;;;;4.90;2.00;;;;;;;;;;5094732;28;20101;-69
2021/12/08 13:20:59;;;;;;;5.78;2.00;;;;;;;;;;5095826;28;20031;-69
2021/12/08 13:23:30;;;;;;;4.53;1.95;;;;;;;;;;5095855;28;20467;-69
2021/12/08 13:26:04;;;;;;;3.92;1.88;;;;;;;;;;5095665;28;20049;-70
2021/12/08 13:29:04;;;;;;;3.40;1.90;;;;;;;;;;5095200;28;20470;-69
2021/12/08 13:34:01;;;;;;;3.97;1.70;;;;;;;;;;5113224;28;20096;-66
2021/12/08 13:36:48;;;;;;;6.78;1.50;;;;;;;;;;5112933;28;20115;-65
2021/12/08 13:39:14;;;;;;;4.57;2.00;;;;;;;;;;5113153;28;20443;-68
2021/12/08 13:41:53;;;;;;;6.13;1.92;;;;;;;;;;5106487;28;20032;-68
2021/12/08 13:44:25;;;;;;;3.35;1.80;;;;;;;;;;5093125;28;20169;-69
2021/12/08 13:46:53;;;;;;;4.97;1.90;;;;;;;;;;5092616;28;20260;-67
2021/12/08 13:49:23;;;;;;;9.88;1.92;;;;;;;;;;5092431;28;20024;-69
2021/12/08 13:52:08;;;;;;;7.13;1.95;;;;;;;;;;5092702;28;20425;-68
2021/12/08 13:54:39;;;;;;;4.82;1.85;;;;;;;;;;5074407;28;20579;-68
2021/12/08 13:57:23;;;;;;;4.28;1.70;;;;;;;;;;5074436;28;20063;-68
2021/12/08 14:00:05;;;;;;;4.20;1.40;;;;;;;;;;5074555;28;20027;-67
2021/12/08 14:02:33;;;;;;;3.60;1.50;;;;;;;;;;5092268;28;20028;-67
2021/12/08 14:05:01;;;;;;;5.28;1.70;;;;;;;;;;5092363;28;20503;-67
2021/12/08 14:07:27;;;;;;;3.17;1.60;;;;;;;;;;5074092;28;20464;-67
2021/12/08 14:10:01;;;;;;;4.32;1.85;;;;;;;;;;5074022;28;20064;-68
2021/12/08 14:12:45;;;;;;;3.60;1.63;;;;;;;;;;5091766;28;20067;-68
2021/12/08 14:15:16;;;;;;;2.70;1.42;;;;;;;;;;5092494;28;20044;-68
2021/12/08 14:17:42;;;;;;;5.93;1.77;;;;;;;;;;5074385;28;20055;-68
2021/12/08 14:20:24;;;;;;;5.30;1.88;;;;;;;;;;5109825;28;20055;-66
2021/12/08 14:22:50;;;;;;;6.20;1.92;;;;;;;;;;5112859;28;20027;-66
2021/12/08 14:25:16;;;;;;;6.40;1.30;;;;;;;;;;5094298;28;20191;-65
2021/12/08 14:27:42;;;;;;;3.47;1.60;;;;;;;;;;5112470;28;20122;-66
2021/12/08 14:30:08;;;;;;;3.38;1.40;;;;;;;;;;5112410;28;20020;-66
2021/12/08 14:32:34;;;;;;;4.72;1.50;;;;;;;;;;5094033;28;20034;-66
2021/12/08 14:35:08;;;;;;;5.07;1.75;;;;;;;;;;5112166;28;20043;-66
2021/12/08 14:37:34;;;;;;;2.60;1.65;;;;;;;;;;5112279;28;20019;-66
2021/12/08 14:40:02;;;;;;;4.03;1.60;;;;;;;;;;5112234;28;20024;-66
2021/12/08 14:42:29;;;;;;;6.68;1.77;;;;;;;;;;5094023;28;20118;-66
2021/12/08 14:45:03;;;;;;;3.85;1.52;;;;;;;;;;5108587;28;20841;-66
2021/12/08 14:47:32;;;;;;;4.32;1.50;;;;;;;;;;5091793;28;20069;-66
2021/12/08 14:50:02;;;;;;;8.30;1.75;;;;;;;;;;5073502;28;20028;-66
2021/12/08 14:52:32;;;;;;;8.98;2.10;;;;;;;;;;5091817;28;20031;-66
2021/12/08 14:54:59;;;;;;;8.02;2.40;;;;;;;;;;5091235;28;20032;-65
2021/12/08 14:57:32;;;;;;;2.70;1.38;;;;;;;;;;5100755;28;20375;-66
2021/12/08 15:00:12;;;;;;;8.50;1.90;;;;;;;;;;5098502;28;20020;-66
2021/12/08 15:02:40;;;;;;;6.03;1.92;;;;;;;;;;5097136;28;20032;-66
2021/12/08 15:05:08;;;;;;;6.95;2.13;;;;;;;;;;5101449;28;20015;-65
2021/12/08 15:07:34;;;;;;;4.40;1.83;;;;;;;;;;5105874;28;20028;-66
2021/12/08 15:10:00;;;;;;;5.93;1.90;;;;;;;;;;5115566;28;20031;-66
2021/12/08 15:12:26;;;;;;;4.53;1.50;;;;;;;;;;5115913;28;20451;-65
2021/12/08 15:14:52;;;;;;;5.82;1.65;;;;;;;;;;5094997;28;20044;-64
2021/12/08 15:17:30;;;;;;;5.88;2.03;;;;;;;;;;5074841;28;20357;-66
2021/12/08 15:19:57;;;;;;;3.47;1.70;;;;;;;;;;5106858;28;20019;-66
2021/12/08 15:22:37;;;;;;;5.20;1.83;;;;;;;;;;5115670;28;20035;-66
2021/12/08 15:25:23;;;;;;;8.52;2.25;;;;;;;;;;5109235;28;20012;-66
2021/12/08 15:27:50;;;;;;;3.60;1.63;;;;;;;;;;5092813;28;20022;-66
2021/12/08 15:30:17;;;;;;;3.72;1.52;;;;;;;;;;5076575;28;20101;-65
2021/12/08 15:32:54;;;;;;;6.03;2.00;;;;;;;;;;5073602;28;20034;-65
2021/12/08 15:35:20;;;;;;;4.97;1.85;;;;;;;;;;5076664;28;20471;-65
2021/12/08 15:37:51;;;;;;;5.40;1.60;;;;;;;;;;5094808;28;20030;-65
2021/12/08 15:40:17;;;;;;;6.18;2.10;;;;;;;;;;5076626;28;20521;-65
2021/12/08 15:42:43;;;;;;;4.15;1.67;;;;;;;;;;5076988;28;20047;-65
2021/12/08 15:45:09;;;;;;;5.28;1.73;;;;;;;;;;5095932;28;20472;-68
2021/12/08 15:47:36;;;;;;;4.93;1.60;;;;;;;;;;5095587;28;20035;-68